DAL7755 KLAX-KLAS
Flight info
| Callsign | DAL7755 |
|---|---|
| Flight time | 0h 48m |
| Altitude | 29000 |
| Route | ORCKA5 MISEN RNDRZ4 |
| Aircraft | A320/M-SDE3FGHIRWY/LB1 |
Departure
| Time | 2026-05-06 16:26 |
|---|---|
| Airport | Los Angeles International Airport (KLAX) |
Arrival
| Time | 2026-05-06 17:14 |
|---|---|
| Airport | Harry Reid International Airport (KLAS) |
| Time | Latitude | Longitude | Altitude | Speed | Heading |
|---|---|---|---|---|---|
| 2026-05-06 16:01 | 33.93980 | -118.40410 | 93 ft | 0 kts | 352° |
| 2026-05-06 16:16 | 33.93975 | -118.40410 | 93 ft | 3 kts | 354° |
| 2026-05-06 16:17 | 33.93954 | -118.40407 | 94 ft | 4 kts | 1° |
| 2026-05-06 16:17 | 33.93929 | -118.40414 | 93 ft | 4 kts | 40° |
| 2026-05-06 16:17 | 33.93917 | -118.40436 | 95 ft | 2 kts | 82° |
| 2026-05-06 16:17 | 33.93917 | -118.40442 | 94 ft | 0 kts | 82° |
| 2026-05-06 16:22 | 33.93917 | -118.40441 | 94 ft | 2 kts | 82° |
| 2026-05-06 16:22 | 33.93928 | -118.40344 | 94 ft | 16 kts | 82° |
| 2026-05-06 16:22 | 33.93943 | -118.40192 | 94 ft | 22 kts | 83° |
| 2026-05-06 16:22 | 33.93963 | -118.39988 | 94 ft | 26 kts | 83° |
| 2026-05-06 16:23 | 33.93984 | -118.39770 | 95 ft | 27 kts | 83° |
| 2026-05-06 16:23 | 33.94007 | -118.39544 | 93 ft | 28 kts | 83° |
| 2026-05-06 16:23 | 33.94032 | -118.39310 | 93 ft | 29 kts | 83° |
| 2026-05-06 16:23 | 33.94056 | -118.39070 | 95 ft | 29 kts | 88° |
| 2026-05-06 16:24 | 33.94072 | -118.38828 | 94 ft | 29 kts | 83° |
| 2026-05-06 16:24 | 33.94098 | -118.38587 | 96 ft | 30 kts | 82° |
| 2026-05-06 16:24 | 33.94113 | -118.38394 | 95 ft | 16 kts | 94° |
| 2026-05-06 16:24 | 33.94059 | -118.38337 | 95 ft | 0 kts | 169° |
| 2026-05-06 16:25 | 33.94008 | -118.38330 | 97 ft | 16 kts | 174° |
| 2026-05-06 16:25 | 33.93942 | -118.38439 | 100 ft | 23 kts | 262° |
| 2026-05-06 16:26 | 33.93899 | -118.38856 | 98 ft | 92 kts | 264° |
| 2026-05-06 16:26 | 33.93789 | -118.39937 | 105 ft | 163 kts | 263° |
| 2026-05-06 16:26 | 33.93657 | -118.41383 | 631 ft | 184 kts | 264° |
| 2026-05-06 16:26 | 33.93536 | -118.42939 | 1397 ft | 194 kts | 262° |
| 2026-05-06 16:27 | 33.93313 | -118.44628 | 1847 ft | 215 kts | 259° |
| 2026-05-06 16:27 | 33.92979 | -118.46484 | 2249 ft | 239 kts | 255° |
| 2026-05-06 16:27 | 33.92420 | -118.48461 | 2787 ft | 257 kts | 245° |
| 2026-05-06 16:27 | 33.91347 | -118.50207 | 3611 ft | 265 kts | 221° |
| 2026-05-06 16:28 | 33.89699 | -118.51240 | 4414 ft | 274 kts | 193° |
| 2026-05-06 16:28 | 33.87782 | -118.51189 | 5203 ft | 282 kts | 162° |
| 2026-05-06 16:28 | 33.86114 | -118.49991 | 6032 ft | 282 kts | 131° |
| 2026-05-06 16:28 | 33.85139 | -118.47979 | 6889 ft | 280 kts | 102° |
| 2026-05-06 16:29 | 33.85073 | -118.45677 | 7719 ft | 277 kts | 74° |
| 2026-05-06 16:29 | 33.85918 | -118.43634 | 8549 ft | 275 kts | 47° |
| 2026-05-06 16:29 | 33.87456 | -118.42306 | 9396 ft | 276 kts | 20° |
| 2026-05-06 16:29 | 33.89351 | -118.42009 | 10210 ft | 280 kts | 354° |
| 2026-05-06 16:30 | 33.91321 | -118.42520 | 10592 ft | 300 kts | 352° |
| 2026-05-06 16:30 | 33.92725 | -118.42619 | 10728 ft | 313 kts | 7° |
| 2026-05-06 16:30 | 33.95378 | -118.41091 | 11261 ft | 329 kts | 45° |
| 2026-05-06 16:30 | 33.96734 | -118.38843 | 11934 ft | 335 kts | 59° |
| 2026-05-06 16:31 | 33.97829 | -118.36352 | 12689 ft | 338 kts | 60° |
| 2026-05-06 16:31 | 33.98941 | -118.33841 | 13413 ft | 341 kts | 59° |
| 2026-05-06 16:31 | 34.00130 | -118.31355 | 14113 ft | 343 kts | 57° |
| 2026-05-06 16:31 | 34.01400 | -118.28910 | 14745 ft | 345 kts | 55° |
| 2026-05-06 16:32 | 34.02734 | -118.26491 | 15374 ft | 348 kts | 54° |
| 2026-05-06 16:32 | 34.04111 | -118.24080 | 15983 ft | 350 kts | 53° |
| 2026-05-06 16:32 | 34.05510 | -118.21662 | 16590 ft | 353 kts | 53° |
| 2026-05-06 16:32 | 34.06922 | -118.19219 | 17195 ft | 356 kts | 53° |
| 2026-05-06 16:33 | 34.08337 | -118.16749 | 17817 ft | 359 kts | 53° |
| 2026-05-06 16:33 | 34.09755 | -118.14254 | 18417 ft | 362 kts | 53° |
| 2026-05-06 16:33 | 34.11162 | -118.11764 | 18958 ft | 365 kts | 53° |
| 2026-05-06 16:34 | 34.14032 | -118.06665 | 20038 ft | 370 kts | 53° |
| 2026-05-06 16:34 | 34.15481 | -118.04089 | 20607 ft | 371 kts | 53° |
| 2026-05-06 16:34 | 34.16935 | -118.01501 | 21143 ft | 374 kts | 53° |
| 2026-05-06 16:34 | 34.18398 | -117.98898 | 21655 ft | 376 kts | 53° |
| 2026-05-06 16:35 | 34.19870 | -117.96277 | 22064 ft | 379 kts | 53° |
| 2026-05-06 16:35 | 34.21356 | -117.93638 | 22587 ft | 381 kts | 53° |
| 2026-05-06 16:35 | 34.22848 | -117.90983 | 22995 ft | 384 kts | 53° |
| 2026-05-06 16:35 | 34.24355 | -117.88302 | 23477 ft | 387 kts | 53° |
| 2026-05-06 16:36 | 34.25870 | -117.85605 | 23902 ft | 389 kts | 53° |
| 2026-05-06 16:36 | 34.27397 | -117.82887 | 24280 ft | 391 kts | 53° |
| 2026-05-06 16:36 | 34.28926 | -117.80161 | 24623 ft | 393 kts | 53° |
| 2026-05-06 16:36 | 34.30459 | -117.77417 | 24975 ft | 395 kts | 54° |
| 2026-05-06 16:37 | 34.31997 | -117.74659 | 25318 ft | 396 kts | 53° |
| 2026-05-06 16:37 | 34.33539 | -117.71890 | 25689 ft | 397 kts | 54° |
| 2026-05-06 16:37 | 34.35088 | -117.69112 | 26023 ft | 399 kts | 54° |
| 2026-05-06 16:37 | 34.36676 | -117.66346 | 26375 ft | 400 kts | 52° |
| 2026-05-06 16:38 | 34.38305 | -117.63610 | 26748 ft | 402 kts | 52° |
| 2026-05-06 16:38 | 34.39961 | -117.60877 | 27105 ft | 403 kts | 52° |
| 2026-05-06 16:38 | 34.41627 | -117.58139 | 27446 ft | 405 kts | 52° |
| 2026-05-06 16:38 | 34.43296 | -117.55387 | 27774 ft | 406 kts | 52° |
| 2026-05-06 16:39 | 34.44965 | -117.52616 | 28082 ft | 408 kts | 52° |
| 2026-05-06 16:39 | 34.46631 | -117.49827 | 28458 ft | 410 kts | 52° |
| 2026-05-06 16:39 | 34.48300 | -117.47022 | 28784 ft | 411 kts | 52° |
| 2026-05-06 16:39 | 34.49950 | -117.44239 | 29084 ft | 413 kts | 52° |
| 2026-05-06 16:40 | 34.51619 | -117.41420 | 29177 ft | 408 kts | 52° |
| 2026-05-06 16:40 | 34.54885 | -117.35897 | 29183 ft | 400 kts | 52° |
| 2026-05-06 16:41 | 34.58132 | -117.30420 | 29183 ft | 399 kts | 52° |
| 2026-05-06 16:41 | 34.61372 | -117.24949 | 29176 ft | 399 kts | 52° |
| 2026-05-06 16:42 | 34.64610 | -117.19472 | 29160 ft | 399 kts | 52° |
| 2026-05-06 16:42 | 34.67838 | -117.13986 | 29106 ft | 399 kts | 52° |
| 2026-05-06 16:43 | 34.71068 | -117.08506 | 29103 ft | 399 kts | 52° |
| 2026-05-06 16:43 | 34.74294 | -117.03026 | 29104 ft | 398 kts | 52° |
| 2026-05-06 16:44 | 34.77515 | -116.97541 | 29103 ft | 398 kts | 52° |
| 2026-05-06 16:44 | 34.80728 | -116.92057 | 29107 ft | 398 kts | 52° |
| 2026-05-06 16:45 | 34.83939 | -116.86564 | 29120 ft | 398 kts | 52° |
| 2026-05-06 16:45 | 34.87148 | -116.81069 | 29116 ft | 398 kts | 52° |
| 2026-05-06 16:46 | 34.90349 | -116.75577 | 29111 ft | 397 kts | 52° |
| 2026-05-06 16:46 | 34.93539 | -116.70075 | 29104 ft | 397 kts | 53° |
| 2026-05-06 16:47 | 34.96675 | -116.64524 | 29094 ft | 398 kts | 53° |
| 2026-05-06 16:47 | 34.99796 | -116.58952 | 29086 ft | 398 kts | 53° |
| 2026-05-06 16:48 | 35.02928 | -116.53390 | 29087 ft | 398 kts | 53° |
| 2026-05-06 16:48 | 35.06038 | -116.47863 | 29067 ft | 398 kts | 53° |
| 2026-05-06 16:49 | 35.09167 | -116.42296 | 29067 ft | 398 kts | 53° |
| 2026-05-06 16:49 | 35.12753 | -116.37142 | 29084 ft | 404 kts | 45° |
| 2026-05-06 16:50 | 35.16647 | -116.32128 | 29089 ft | 408 kts | 45° |
| 2026-05-06 16:50 | 35.20540 | -116.27078 | 28869 ft | 407 kts | 45° |
| 2026-05-06 16:50 | 35.21843 | -116.25383 | 27997 ft | 404 kts | 45° |
| 2026-05-06 16:51 | 35.24376 | -116.22049 | 26147 ft | 403 kts | 46° |
| 2026-05-06 16:51 | 35.26242 | -116.19516 | 24964 ft | 399 kts | 47° |
| 2026-05-06 16:51 | 35.28076 | -116.16984 | 23844 ft | 395 kts | 47° |
| 2026-05-06 16:51 | 35.29879 | -116.14476 | 22827 ft | 388 kts | 47° |
| 2026-05-06 16:52 | 35.31040 | -116.12859 | 22632 ft | 376 kts | 47° |
| 2026-05-06 16:52 | 35.32756 | -116.10481 | 22580 ft | 371 kts | 47° |
| 2026-05-06 16:52 | 35.34471 | -116.08119 | 22583 ft | 371 kts | 46° |
| 2026-05-06 16:52 | 35.36197 | -116.05753 | 21856 ft | 377 kts | 46° |
| 2026-05-06 16:53 | 35.37964 | -116.03334 | 20988 ft | 383 kts | 47° |
| 2026-05-06 16:53 | 35.39730 | -116.00909 | 20461 ft | 379 kts | 47° |
| 2026-05-06 16:53 | 35.41471 | -115.98511 | 19972 ft | 375 kts | 47° |
| 2026-05-06 16:53 | 35.43197 | -115.96133 | 19486 ft | 372 kts | 47° |
| 2026-05-06 16:54 | 35.44907 | -115.93773 | 18987 ft | 369 kts | 47° |
| 2026-05-06 16:54 | 35.46606 | -115.91423 | 18484 ft | 367 kts | 47° |
| 2026-05-06 16:54 | 35.48295 | -115.89086 | 17922 ft | 364 kts | 47° |
| 2026-05-06 16:54 | 35.49933 | -115.86817 | 17427 ft | 347 kts | 47° |
| 2026-05-06 16:55 | 35.51525 | -115.84613 | 16943 ft | 344 kts | 47° |
| 2026-05-06 16:55 | 35.53106 | -115.82428 | 16573 ft | 339 kts | 47° |
| 2026-05-06 16:55 | 35.54632 | -115.80321 | 16433 ft | 319 kts | 47° |
| 2026-05-06 16:55 | 35.56064 | -115.78340 | 16148 ft | 303 kts | 47° |
| 2026-05-06 16:56 | 35.57448 | -115.76424 | 16098 ft | 299 kts | 47° |
| 2026-05-06 16:56 | 35.58827 | -115.74514 | 16100 ft | 299 kts | 47° |
| 2026-05-06 16:56 | 35.60210 | -115.72613 | 16098 ft | 298 kts | 46° |
| 2026-05-06 16:56 | 35.61604 | -115.70729 | 16097 ft | 298 kts | 46° |
| 2026-05-06 16:57 | 35.63004 | -115.68849 | 16072 ft | 298 kts | 46° |
| 2026-05-06 16:57 | 35.64405 | -115.66966 | 15647 ft | 300 kts | 46° |
| 2026-05-06 16:57 | 35.65808 | -115.65079 | 15378 ft | 297 kts | 46° |
| 2026-05-06 16:57 | 35.67199 | -115.63203 | 15234 ft | 297 kts | 46° |
| 2026-05-06 16:58 | 35.68586 | -115.61329 | 15069 ft | 296 kts | 46° |
| 2026-05-06 16:58 | 35.69970 | -115.59457 | 14919 ft | 296 kts | 46° |
| 2026-05-06 16:58 | 35.71352 | -115.57584 | 14768 ft | 295 kts | 46° |
| 2026-05-06 16:58 | 35.72787 | -115.55786 | 14619 ft | 294 kts | 38° |
| 2026-05-06 16:59 | 35.74485 | -115.54404 | 14471 ft | 292 kts | 28° |
| 2026-05-06 16:59 | 35.76257 | -115.53170 | 14324 ft | 293 kts | 28° |
| 2026-05-06 16:59 | 35.78028 | -115.51936 | 14191 ft | 293 kts | 28° |
| 2026-05-06 16:59 | 35.79800 | -115.50701 | 14092 ft | 292 kts | 29° |
| 2026-05-06 17:00 | 35.81565 | -115.49468 | 14099 ft | 293 kts | 29° |
| 2026-05-06 17:00 | 35.83335 | -115.48228 | 14103 ft | 292 kts | 28° |
| 2026-05-06 17:00 | 35.85097 | -115.46990 | 14104 ft | 291 kts | 28° |
| 2026-05-06 17:00 | 35.86856 | -115.45753 | 13869 ft | 292 kts | 28° |
| 2026-05-06 17:01 | 35.88624 | -115.44511 | 13421 ft | 293 kts | 28° |
| 2026-05-06 17:01 | 35.90383 | -115.43273 | 13141 ft | 289 kts | 28° |
| 2026-05-06 17:01 | 35.92121 | -115.42051 | 13093 ft | 287 kts | 28° |
| 2026-05-06 17:01 | 35.93857 | -115.40835 | 13104 ft | 287 kts | 28° |
| 2026-05-06 17:02 | 35.95595 | -115.39620 | 13091 ft | 287 kts | 28° |
| 2026-05-06 17:02 | 35.97332 | -115.38408 | 13084 ft | 287 kts | 28° |
| 2026-05-06 17:02 | 35.99034 | -115.37175 | 12686 ft | 289 kts | 34° |
| 2026-05-06 17:02 | 36.00443 | -115.35406 | 12300 ft | 292 kts | 54° |
| 2026-05-06 17:03 | 36.01266 | -115.33118 | 11923 ft | 295 kts | 74° |
| 2026-05-06 17:03 | 36.01404 | -115.30585 | 11546 ft | 296 kts | 90° |
| 2026-05-06 17:03 | 36.01283 | -115.28048 | 10880 ft | 295 kts | 90° |
| 2026-05-06 17:03 | 36.01154 | -115.25527 | 10247 ft | 293 kts | 90° |
| 2026-05-06 17:04 | 36.01024 | -115.23036 | 9784 ft | 287 kts | 90° |
| 2026-05-06 17:04 | 36.00895 | -115.20573 | 9550 ft | 288 kts | 90° |
| 2026-05-06 17:04 | 36.00768 | -115.18162 | 9402 ft | 271 kts | 90° |
| 2026-05-06 17:04 | 36.00648 | -115.15931 | 9296 ft | 251 kts | 90° |
| 2026-05-06 17:05 | 36.00536 | -115.13802 | 9191 ft | 247 kts | 90° |
| 2026-05-06 17:05 | 36.00431 | -115.11692 | 9081 ft | 246 kts | 90° |
| 2026-05-06 17:05 | 36.00330 | -115.09582 | 8916 ft | 246 kts | 90° |
| 2026-05-06 17:05 | 36.00228 | -115.07517 | 8685 ft | 232 kts | 90° |
| 2026-05-06 17:06 | 36.00128 | -115.05590 | 8474 ft | 221 kts | 90° |
| 2026-05-06 17:06 | 36.00033 | -115.03765 | 8320 ft | 205 kts | 90° |
| 2026-05-06 17:06 | 35.99944 | -115.02068 | 8103 ft | 191 kts | 90° |
| 2026-05-06 17:06 | 35.99882 | -115.00484 | 7899 ft | 179 kts | 87° |
| 2026-05-06 17:07 | 35.99868 | -114.98988 | 7628 ft | 170 kts | 86° |
| 2026-05-06 17:07 | 35.99865 | -114.97558 | 7427 ft | 164 kts | 86° |
| 2026-05-06 17:07 | 35.99864 | -114.96157 | 7235 ft | 163 kts | 86° |
| 2026-05-06 17:07 | 35.99867 | -114.94760 | 7044 ft | 163 kts | 83° |
| 2026-05-06 17:08 | 36.00089 | -114.93431 | 6822 ft | 159 kts | 65° |
| 2026-05-06 17:08 | 36.00600 | -114.92239 | 6616 ft | 156 kts | 50° |
| 2026-05-06 17:08 | 36.01343 | -114.91273 | 6400 ft | 155 kts | 35° |
| 2026-05-06 17:08 | 36.02259 | -114.90587 | 6181 ft | 154 kts | 21° |
| 2026-05-06 17:09 | 36.03284 | -114.90234 | 5952 ft | 153 kts | 5° |
| 2026-05-06 17:09 | 36.04336 | -114.90272 | 5684 ft | 151 kts | 348° |
| 2026-05-06 17:09 | 36.05324 | -114.90694 | 5426 ft | 151 kts | 331° |
| 2026-05-06 17:09 | 36.06217 | -114.91381 | 5173 ft | 152 kts | 322° |
| 2026-05-06 17:10 | 36.06925 | -114.92337 | 4933 ft | 151 kts | 301° |
| 2026-05-06 17:10 | 36.07266 | -114.93542 | 4810 ft | 151 kts | 272° |
| 2026-05-06 17:10 | 36.07304 | -114.94832 | 4753 ft | 150 kts | 273° |
| 2026-05-06 17:10 | 36.07336 | -114.96121 | 4604 ft | 150 kts | 272° |
| 2026-05-06 17:11 | 36.07351 | -114.97409 | 4442 ft | 150 kts | 270° |
| 2026-05-06 17:11 | 36.07358 | -114.98700 | 4258 ft | 150 kts | 270° |
| 2026-05-06 17:11 | 36.07362 | -114.99989 | 4067 ft | 150 kts | 270° |
| 2026-05-06 17:11 | 36.07364 | -115.01278 | 3877 ft | 151 kts | 270° |
| 2026-05-06 17:12 | 36.07365 | -115.02577 | 3693 ft | 151 kts | 270° |
| 2026-05-06 17:12 | 36.07365 | -115.03872 | 3499 ft | 151 kts | 269° |
| 2026-05-06 17:12 | 36.07366 | -115.05165 | 3306 ft | 150 kts | 269° |
| 2026-05-06 17:12 | 36.07366 | -115.06454 | 3110 ft | 150 kts | 269° |
| 2026-05-06 17:13 | 36.07366 | -115.07745 | 2903 ft | 150 kts | 269° |
| 2026-05-06 17:13 | 36.07366 | -115.09040 | 2696 ft | 151 kts | 269° |
| 2026-05-06 17:13 | 36.07368 | -115.10335 | 2498 ft | 150 kts | 269° |
| 2026-05-06 17:13 | 36.07371 | -115.11618 | 2334 ft | 146 kts | 269° |
| 2026-05-06 17:14 | 36.07370 | -115.12845 | 2079 ft | 138 kts | 270° |
| 2026-05-06 17:14 | 36.07366 | -115.13851 | 2079 ft | 93 kts | 271° |
| 2026-05-06 17:14 | 36.07369 | -115.14478 | 2091 ft | 58 kts | 269° |
| 2026-05-06 17:14 | 36.07392 | -115.14905 | 2096 ft | 42 kts | 292° |
| 2026-05-06 17:15 | 36.07459 | -115.15019 | 2098 ft | 1 kts | 293° |
| 2026-05-06 17:15 | 36.07492 | -115.15084 | 2100 ft | 16 kts | 310° |
| 2026-05-06 17:15 | 36.07535 | -115.15132 | 2103 ft | 0 kts | 327° |
| 2026-05-06 17:15 | 36.07539 | -115.15135 | 2103 ft | 5 kts | 330° |
| 2026-05-06 17:16 | 36.07618 | -115.15183 | 2110 ft | 12 kts | 335° |
| 2026-05-06 17:16 | 36.07714 | -115.15239 | 2108 ft | 21 kts | 334° |
| 2026-05-06 17:16 | 36.07862 | -115.15325 | 2100 ft | 26 kts | 336° |
| 2026-05-06 17:16 | 36.08032 | -115.15420 | 2098 ft | 28 kts | 335° |
| 2026-05-06 17:17 | 36.08208 | -115.15524 | 2099 ft | 28 kts | 335° |
| 2026-05-06 17:17 | 36.08384 | -115.15626 | 2101 ft | 26 kts | 335° |
| 2026-05-06 17:17 | 36.08503 | -115.15638 | 2101 ft | 17 kts | 54° |
| 2026-05-06 17:17 | 36.08552 | -115.15545 | 2099 ft | 13 kts | 113° |
| 2026-05-06 17:18 | 36.08541 | -115.15495 | 2098 ft | 4 kts | 106° |
| 2026-05-06 17:18 | 36.08540 | -115.15492 | 2098 ft | 0 kts | 106° |